TimeMST,TemperatureF,Dew PointF,Humidity,Sea Level PressureIn,VisibilityMPH,Wind Direction,Wind SpeedMPH,Gust SpeedMPH,PrecipitationIn,Events,Conditions,WindDirDegrees,DateUTC
12:55 AM,28.4,17.6,64,30.19,10.0,South,10.4,-,N/A,,Partly Cloudy,170,2013-02-02 07:55:00
1:55 AM,24.8,19.4,80,30.22,10.0,SSE,9.2,-,N/A,,Partly Cloudy,160,2013-02-02 08:55:00
2:55 AM,23.0,17.6,80,30.23,10.0,South,9.2,-,N/A,,Partly Cloudy,190,2013-02-02 09:55:00
3:55 AM,26.6,19.4,74,30.24,10.0,South,11.5,-,N/A,,Partly Cloudy,170,2013-02-02 10:55:00
4:55 AM,24.8,17.6,74,30.26,10.0,SSE,8.1,-,N/A,,Partly Cloudy,150,2013-02-02 11:55:00
5:55 AM,23.0,15.8,74,30.27,10.0,South,9.2,-,N/A,,Partly Cloudy,180,2013-02-02 12:55:00
6:55 AM,23.0,14.0,68,30.29,70.0,South,12.7,-,N/A,,Partly Cloudy,180,2013-02-02 13:55:00
7:55 AM,28.4,15.8,59,30.29,70.0,South,8.1,-,N/A,,Partly Cloudy,180,2013-02-02 14:55:00
8:55 AM,33.8,17.6,52,30.29,70.0,South,9.2,-,N/A,,Partly Cloudy,180,2013-02-02 15:55:00
9:55 AM,41.0,15.8,36,30.27,70.0,South,13.8,-,N/A,,Partly Cloudy,190,2013-02-02 16:55:00
10:55 AM,46.4,12.2,25,30.25,70.0,SW,15.0,-,N/A,,Partly Cloudy,220,2013-02-02 17:55:00
11:55 AM,51.8,6.8,16,30.20,70.0,West,11.5,-,N/A,,Partly Cloudy,260,2013-02-02 18:55:00
12:55 PM,55.4,3.2,12,30.17,70.0,WNW,15.0,21.9,N/A,,Partly Cloudy,300,2013-02-02 19:55:00
1:55 PM,57.2,3.2,11,30.16,70.0,NW,12.7,-,N/A,,Partly Cloudy,310,2013-02-02 20:55:00
2:55 PM,57.2,5.0,12,30.17,70.0,NNW,11.5,-,N/A,,Partly Cloudy,340,2013-02-02 21:55:00
3:55 PM,53.6,12.2,19,30.19,70.0,ENE,16.1,-,N/A,,Scattered Clouds,60,2013-02-02 22:55:00
4:55 PM,44.6,15.8,31,30.26,70.0,East,11.5,-,N/A,,Scattered Clouds,80,2013-02-02 23:55:00
5:55 PM,37.4,14.0,38,30.32,25.0,ESE,11.5,-,N/A,,Scattered Clouds,110,2013-02-03 00:55:00
6:55 PM,37.4,14.0,38,30.33,10.0,ESE,10.4,-,N/A,,Partly Cloudy,120,2013-02-03 01:55:00
7:55 PM,32.0,14.0,48,30.37,10.0,SSE,9.2,-,N/A,,Partly Cloudy,150,2013-02-03 02:55:00
8:55 PM,30.2,14.0,51,30.35,10.0,South,8.1,-,N/A,,Partly Cloudy,180,2013-02-03 03:55:00
9:55 PM,28.4,14.0,55,30.31,10.0,South,8.1,-,N/A,,Partly Cloudy,180,2013-02-03 04:55:00
10:55 PM,28.4,14.0,55,30.27,10.0,South,11.5,-,N/A,,Partly Cloudy,180,2013-02-03 05:55:00
11:55 PM,28.4,14.0,55,30.22,10.0,South,12.7,-,N/A,,Partly Cloudy,170,2013-02-03 06:55:00